sensor_id;sensor_type;location;lat;lon;timestamp;temperature;humidity
11436;DHT22;5774;48.778;8.904;2022-08-18T00:00:30;25.50;92.00
11436;DHT22;5774;48.778;8.904;2022-08-18T00:02:57;25.50;92.00
11436;DHT22;5774;48.778;8.904;2022-08-18T00:05:27;25.50;92.00
11436;DHT22;5774;48.778;8.904;2022-08-18T00:07:53;25.50;92.00
11436;DHT22;5774;48.778;8.904;2022-08-18T00:10:20;25.50;92.00
11436;DHT22;5774;48.778;8.904;2022-08-18T00:12:48;25.50;92.00
11436;DHT22;5774;48.778;8.904;2022-08-18T00:15:16;25.50;92.00
11436;DHT22;5774;48.778;8.904;2022-08-18T00:17:43;25.40;92.00
11436;DHT22;5774;48.778;8.904;2022-08-18T00:20:11;25.50;92.00
11436;DHT22;5774;48.778;8.904;2022-08-18T00:22:40;25.50;92.00
11436;DHT22;5774;48.778;8.904;2022-08-18T00:25:08;25.50;92.00
11436;DHT22;5774;48.778;8.904;2022-08-18T00:27:36;25.40;92.00
11436;DHT22;5774;48.778;8.904;2022-08-18T00:30:07;25.50;92.00
11436;DHT22;5774;48.778;8.904;2022-08-18T00:32:36;25.50;92.00
11436;DHT22;5774;48.778;8.904;2022-08-18T00:35:04;25.50;92.00
11436;DHT22;5774;48.778;8.904;2022-08-18T00:37:32;25.50;92.00
11436;DHT22;5774;48.778;8.904;2022-08-18T00:39:59;25.40;92.00
11436;DHT22;5774;48.778;8.904;2022-08-18T00:42:27;25.40;91.90
11436;DHT22;5774;48.778;8.904;2022-08-18T00:44:56;25.40;91.90
11436;DHT22;5774;48.778;8.904;2022-08-18T00:47:26;25.50;92.00
11436;DHT22;5774;48.778;8.904;2022-08-18T00:49:53;25.40;91.90
11436;DHT22;5774;48.778;8.904;2022-08-18T00:52:20;25.50;91.90
11436;DHT22;5774;48.778;8.904;2022-08-18T00:54:47;25.40;91.90
11436;DHT22;5774;48.778;8.904;2022-08-18T00:57:14;25.40;91.90
11436;DHT22;5774;48.778;8.904;2022-08-18T00:59:47;25.40;91.90
11436;DHT22;5774;48.778;8.904;2022-08-18T01:02:18;25.40;91.90
11436;DHT22;5774;48.778;8.904;2022-08-18T01:04:48;25.40;91.90
11436;DHT22;5774;48.778;8.904;2022-08-18T01:07:19;25.40;91.90
11436;DHT22;5774;48.778;8.904;2022-08-18T01:09:47;25.50;91.90
11436;DHT22;5774;48.778;8.904;2022-08-18T01:12:15;25.40;91.90
11436;DHT22;5774;48.778;8.904;2022-08-18T01:14:41;25.40;91.90
11436;DHT22;5774;48.778;8.904;2022-08-18T01:17:08;25.40;91.90
11436;DHT22;5774;48.778;8.904;2022-08-18T01:19:54;25.40;91.90
11436;DHT22;5774;48.778;8.904;2022-08-18T01:25:17;25.40;91.90
11436;DHT22;5774;48.778;8.904;2022-08-18T01:28:03;25.40;91.90
11436;DHT22;5774;48.778;8.904;2022-08-18T01:30:30;25.40;91.90
11436;DHT22;5774;48.778;8.904;2022-08-18T01:32:59;25.40;91.80
11436;DHT22;5774;48.778;8.904;2022-08-18T01:35:26;25.40;91.80
11436;DHT22;5774;48.778;8.904;2022-08-18T01:37:54;25.40;91.80
11436;DHT22;5774;48.778;8.904;2022-08-18T01:40:22;25.40;91.80
11436;DHT22;5774;48.778;8.904;2022-08-18T01:42:49;25.40;91.80
11436;DHT22;5774;48.778;8.904;2022-08-18T01:45:16;25.40;91.80
11436;DHT22;5774;48.778;8.904;2022-08-18T01:47:45;25.40;91.80
11436;DHT22;5774;48.778;8.904;2022-08-18T01:50:11;25.40;91.80
11436;DHT22;5774;48.778;8.904;2022-08-18T01:52:39;25.40;91.80
11436;DHT22;5774;48.778;8.904;2022-08-18T01:55:08;25.40;91.80
11436;DHT22;5774;48.778;8.904;2022-08-18T01:57:35;25.40;91.70
11436;DHT22;5774;48.778;8.904;2022-08-18T02:00:08;25.40;91.80
11436;DHT22;5774;48.778;8.904;2022-08-18T02:02:37;25.40;91.70
11436;DHT22;5774;48.778;8.904;2022-08-18T02:05:06;25.40;91.70
11436;DHT22;5774;48.778;8.904;2022-08-18T02:07:35;25.40;91.70
11436;DHT22;5774;48.778;8.904;2022-08-18T02:10:03;25.40;91.70
11436;DHT22;5774;48.778;8.904;2022-08-18T02:12:32;25.40;91.70
11436;DHT22;5774;48.778;8.904;2022-08-18T02:14:59;25.40;91.70
11436;DHT22;5774;48.778;8.904;2022-08-18T02:17:26;25.40;91.70
11436;DHT22;5774;48.778;8.904;2022-08-18T02:19:52;25.40;91.70
11436;DHT22;5774;48.778;8.904;2022-08-18T02:22:20;25.40;92.00
11436;DHT22;5774;48.778;8.904;2022-08-18T02:24:47;25.40;91.70
11436;DHT22;5774;48.778;8.904;2022-08-18T02:27:14;25.30;91.60
11436;DHT22;5774;48.778;8.904;2022-08-18T02:29:43;25.40;91.70
11436;DHT22;5774;48.778;8.904;2022-08-18T02:32:10;25.40;91.70
11436;DHT22;5774;48.778;8.904;2022-08-18T02:34:36;25.40;91.60
11436;DHT22;5774;48.778;8.904;2022-08-18T02:37:03;25.30;91.60
11436;DHT22;5774;48.778;8.904;2022-08-18T02:39:32;25.40;91.60
11436;DHT22;5774;48.778;8.904;2022-08-18T02:41:59;25.40;91.60
11436;DHT22;5774;48.778;8.904;2022-08-18T02:44:27;25.30;91.60
11436;DHT22;5774;48.778;8.904;2022-08-18T02:46:57;25.40;91.60
11436;DHT22;5774;48.778;8.904;2022-08-18T02:49:24;25.40;91.60
11436;DHT22;5774;48.778;8.904;2022-08-18T02:51:51;25.40;91.60
11436;DHT22;5774;48.778;8.904;2022-08-18T02:54:18;25.40;91.60
11436;DHT22;5774;48.778;8.904;2022-08-18T02:56:47;25.30;91.50
11436;DHT22;5774;48.778;8.904;2022-08-18T02:59:16;25.40;91.60
11436;DHT22;5774;48.778;8.904;2022-08-18T03:01:45;25.40;91.60
11436;DHT22;5774;48.778;8.904;2022-08-18T03:04:16;25.40;91.90
11436;DHT22;5774;48.778;8.904;2022-08-18T03:06:44;25.30;91.50
11436;DHT22;5774;48.778;8.904;2022-08-18T03:09:12;25.30;91.50
11436;DHT22;5774;48.778;8.904;2022-08-18T03:11:40;25.30;91.50
11436;DHT22;5774;48.778;8.904;2022-08-18T03:14:07;25.30;91.50
11436;DHT22;5774;48.778;8.904;2022-08-18T03:16:36;25.30;91.50
11436;DHT22;5774;48.778;8.904;2022-08-18T03:19:03;25.30;91.50
11436;DHT22;5774;48.778;8.904;2022-08-18T03:21:31;25.30;91.50
11436;DHT22;5774;48.778;8.904;2022-08-18T03:23:59;25.30;91.50
11436;DHT22;5774;48.778;8.904;2022-08-18T03:26:26;25.30;91.40
11436;DHT22;5774;48.778;8.904;2022-08-18T03:28:53;25.30;91.40
11436;DHT22;5774;48.778;8.904;2022-08-18T03:31:21;25.30;91.70
11436;DHT22;5774;48.778;8.904;2022-08-18T03:33:49;25.30;91.40
11436;DHT22;5774;48.778;8.904;2022-08-18T03:36:18;25.30;91.40
11436;DHT22;5774;48.778;8.904;2022-08-18T03:38:47;25.30;91.40
11436;DHT22;5774;48.778;8.904;2022-08-18T03:41:15;25.30;91.40
11436;DHT22;5774;48.778;8.904;2022-08-18T03:43:43;25.30;91.40
11436;DHT22;5774;48.778;8.904;2022-08-18T03:46:11;25.30;91.40
11436;DHT22;5774;48.778;8.904;2022-08-18T03:48:39;25.30;91.40
11436;DHT22;5774;48.778;8.904;2022-08-18T03:51:09;25.30;91.40
11436;DHT22;5774;48.778;8.904;2022-08-18T03:53:36;25.30;91.30
11436;DHT22;5774;48.778;8.904;2022-08-18T03:56:06;25.30;91.30
11436;DHT22;5774;48.778;8.904;2022-08-18T03:58:34;25.30;91.30
11436;DHT22;5774;48.778;8.904;2022-08-18T04:01:01;25.30;91.30
11436;DHT22;5774;48.778;8.904;2022-08-18T04:03:28;25.30;91.30
11436;DHT22;5774;48.778;8.904;2022-08-18T04:05:55;25.30;91.30
11436;DHT22;5774;48.778;8.904;2022-08-18T04:08:22;25.30;91.30
11436;DHT22;5774;48.778;8.904;2022-08-18T04:10:48;25.30;91.30
11436;DHT22;5774;48.778;8.904;2022-08-18T04:13:17;25.30;91.30
11436;DHT22;5774;48.778;8.904;2022-08-18T04:15:44;25.30;91.30
11436;DHT22;5774;48.778;8.904;2022-08-18T04:18:10;25.30;91.30
11436;DHT22;5774;48.778;8.904;2022-08-18T04:20:37;25.30;91.20
11436;DHT22;5774;48.778;8.904;2022-08-18T04:23:04;25.30;91.20
11436;DHT22;5774;48.778;8.904;2022-08-18T04:25:31;25.30;91.20
11436;DHT22;5774;48.778;8.904;2022-08-18T04:27:58;25.30;91.20
11436;DHT22;5774;48.778;8.904;2022-08-18T04:30:29;25.30;91.20
11436;DHT22;5774;48.778;8.904;2022-08-18T04:32:56;25.30;91.20
11436;DHT22;5774;48.778;8.904;2022-08-18T04:35:22;25.30;91.20
11436;DHT22;5774;48.778;8.904;2022-08-18T04:37:49;25.30;91.20
11436;DHT22;5774;48.778;8.904;2022-08-18T04:40:16;25.30;91.20
11436;DHT22;5774;48.778;8.904;2022-08-18T04:42:43;25.30;91.20
11436;DHT22;5774;48.778;8.904;2022-08-18T04:45:10;25.30;91.20
11436;DHT22;5774;48.778;8.904;2022-08-18T04:47:38;25.30;91.20
11436;DHT22;5774;48.778;8.904;2022-08-18T04:50:07;25.30;91.10
11436;DHT22;5774;48.778;8.904;2022-08-18T04:52:35;25.30;91.20
11436;DHT22;5774;48.778;8.904;2022-08-18T04:55:15;25.30;91.10
11436;DHT22;5774;48.778;8.904;2022-08-18T04:57:42;25.30;91.40
11436;DHT22;5774;48.778;8.904;2022-08-18T05:00:09;25.30;91.10
11436;DHT22;5774;48.778;8.904;2022-08-18T05:02:39;25.30;91.10
11436;DHT22;5774;48.778;8.904;2022-08-18T05:05:06;25.30;91.10
11436;DHT22;5774;48.778;8.904;2022-08-18T05:07:33;25.30;91.10
11436;DHT22;5774;48.778;8.904;2022-08-18T05:10:00;25.30;91.10
11436;DHT22;5774;48.778;8.904;2022-08-18T05:12:27;25.30;91.10
11436;DHT22;5774;48.778;8.904;2022-08-18T05:14:54;25.30;91.10
11436;DHT22;5774;48.778;8.904;2022-08-18T05:17:21;25.30;91.10
11436;DHT22;5774;48.778;8.904;2022-08-18T05:19:54;25.30;91.00
11436;DHT22;5774;48.778;8.904;2022-08-18T05:22:21;25.30;91.10
11436;DHT22;5774;48.778;8.904;2022-08-18T05:24:48;25.30;91.00
11436;DHT22;5774;48.778;8.904;2022-08-18T05:27:16;25.30;91.00
11436;DHT22;5774;48.778;8.904;2022-08-18T05:29:44;25.30;91.00
11436;DHT22;5774;48.778;8.904;2022-08-18T05:32:10;25.30;91.00
11436;DHT22;5774;48.778;8.904;2022-08-18T05:34:37;25.30;91.00
11436;DHT22;5774;48.778;8.904;2022-08-18T05:37:09;25.30;91.00
11436;DHT22;5774;48.778;8.904;2022-08-18T05:39:44;25.30;91.00
11436;DHT22;5774;48.778;8.904;2022-08-18T05:42:19;25.30;91.00
11436;DHT22;5774;48.778;8.904;2022-08-18T05:44:49;25.30;91.00
11436;DHT22;5774;48.778;8.904;2022-08-18T05:47:18;25.30;90.90
11436;DHT22;5774;48.778;8.904;2022-08-18T05:49:48;25.30;90.90
11436;DHT22;5774;48.778;8.904;2022-08-18T05:52:17;25.30;90.90
11436;DHT22;5774;48.778;8.904;2022-08-18T05:54:46;25.30;90.90
11436;DHT22;5774;48.778;8.904;2022-08-18T05:57:36;25.30;90.90
11436;DHT22;5774;48.778;8.904;2022-08-18T06:00:05;25.30;90.90
11436;DHT22;5774;48.778;8.904;2022-08-18T06:02:39;25.30;90.90
11436;DHT22;5774;48.778;8.904;2022-08-18T06:05:13;25.30;90.90
11436;DHT22;5774;48.778;8.904;2022-08-18T06:07:43;25.30;90.90
11436;DHT22;5774;48.778;8.904;2022-08-18T06:10:11;25.30;90.90
11436;DHT22;5774;48.778;8.904;2022-08-18T06:12:39;25.30;90.90
11436;DHT22;5774;48.778;8.904;2022-08-18T06:15:09;25.20;91.00
11436;DHT22;5774;48.778;8.904;2022-08-18T06:17:45;25.20;91.10
11436;DHT22;5774;48.778;8.904;2022-08-18T06:20:19;25.20;91.10
11436;DHT22;5774;48.778;8.904;2022-08-18T06:22:51;25.20;91.20
11436;DHT22;5774;48.778;8.904;2022-08-18T06:25:24;25.10;91.20
11436;DHT22;5774;48.778;8.904;2022-08-18T06:27:54;25.10;91.30
11436;DHT22;5774;48.778;8.904;2022-08-18T06:30:40;25.10;91.40
11436;DHT22;5774;48.778;8.904;2022-08-18T06:33:12;25.00;91.40
11436;DHT22;5774;48.778;8.904;2022-08-18T06:35:44;25.00;91.40
11436;DHT22;5774;48.778;8.904;2022-08-18T06:38:25;25.00;91.40
11436;DHT22;5774;48.778;8.904;2022-08-18T06:41:08;24.90;91.30
11436;DHT22;5774;48.778;8.904;2022-08-18T06:43:38;24.90;91.40
11436;DHT22;5774;48.778;8.904;2022-08-18T06:46:11;24.90;91.40
11436;DHT22;5774;48.778;8.904;2022-08-18T06:48:42;24.90;91.50
11436;DHT22;5774;48.778;8.904;2022-08-18T06:51:13;24.90;91.60
11436;DHT22;5774;48.778;8.904;2022-08-18T06:53:53;24.90;91.60
11436;DHT22;5774;48.778;8.904;2022-08-18T06:56:24;24.80;91.60
11436;DHT22;5774;48.778;8.904;2022-08-18T06:58:53;24.80;91.60
11436;DHT22;5774;48.778;8.904;2022-08-18T07:01:20;24.80;91.60
11436;DHT22;5774;48.778;8.904;2022-08-18T07:03:48;24.80;91.70
11436;DHT22;5774;48.778;8.904;2022-08-18T07:06:29;24.80;91.70
11436;DHT22;5774;48.778;8.904;2022-08-18T07:11:59;24.80;91.80
11436;DHT22;5774;48.778;8.904;2022-08-18T07:14:29;24.80;91.90
11436;DHT22;5774;48.778;8.904;2022-08-18T07:17:06;24.80;91.90
11436;DHT22;5774;48.778;8.904;2022-08-18T07:19:34;24.80;91.90
11436;DHT22;5774;48.778;8.904;2022-08-18T07:22:02;24.80;91.90
11436;DHT22;5774;48.778;8.904;2022-08-18T07:24:33;24.80;91.90
11436;DHT22;5774;48.778;8.904;2022-08-18T07:27:03;24.90;92.20
11436;DHT22;5774;48.778;8.904;2022-08-18T07:29:33;24.90;92.00
11436;DHT22;5774;48.778;8.904;2022-08-18T07:32:01;24.90;92.00
11436;DHT22;5774;48.778;8.904;2022-08-18T07:34:32;24.90;91.90
11436;DHT22;5774;48.778;8.904;2022-08-18T07:37:02;24.90;91.90
11436;DHT22;5774;48.778;8.904;2022-08-18T07:39:33;24.90;91.90
11436;DHT22;5774;48.778;8.904;2022-08-18T07:42:05;24.90;91.90
11436;DHT22;5774;48.778;8.904;2022-08-18T07:44:39;24.90;91.90
11436;DHT22;5774;48.778;8.904;2022-08-18T07:47:11;24.90;91.90
11436;DHT22;5774;48.778;8.904;2022-08-18T07:49:41;25.00;91.90
11436;DHT22;5774;48.778;8.904;2022-08-18T07:52:11;25.00;91.80
11436;DHT22;5774;48.778;8.904;2022-08-18T07:54:44;25.00;91.80
11436;DHT22;5774;48.778;8.904;2022-08-18T07:57:18;25.00;91.80
11436;DHT22;5774;48.778;8.904;2022-08-18T07:59:52;25.00;91.70
11436;DHT22;5774;48.778;8.904;2022-08-18T08:02:27;25.00;91.70
11436;DHT22;5774;48.778;8.904;2022-08-18T08:05:01;25.10;91.70
11436;DHT22;5774;48.778;8.904;2022-08-18T08:07:38;25.10;91.70
11436;DHT22;5774;48.778;8.904;2022-08-18T08:10:27;25.10;91.70
11436;DHT22;5774;48.778;8.904;2022-08-18T08:13:01;25.10;91.70
11436;DHT22;5774;48.778;8.904;2022-08-18T08:15:37;25.10;91.90
11436;DHT22;5774;48.778;8.904;2022-08-18T08:18:10;25.10;91.60
11436;DHT22;5774;48.778;8.904;2022-08-18T08:20:45;25.10;91.60
11436;DHT22;5774;48.778;8.904;2022-08-18T08:23:17;25.10;91.60
11436;DHT22;5774;48.778;8.904;2022-08-18T08:25:57;25.10;91.50
11436;DHT22;5774;48.778;8.904;2022-08-18T08:28:43;25.10;91.50
11436;DHT22;5774;48.778;8.904;2022-08-18T08:31:15;25.10;91.60
11436;DHT22;5774;48.778;8.904;2022-08-18T08:33:47;25.10;91.50
11436;DHT22;5774;48.778;8.904;2022-08-18T08:36:17;25.20;91.60
11436;DHT22;5774;48.778;8.904;2022-08-18T08:38:47;25.20;91.60
11436;DHT22;5774;48.778;8.904;2022-08-18T08:41:19;25.20;91.60
11436;DHT22;5774;48.778;8.904;2022-08-18T08:43:52;25.20;91.60
11436;DHT22;5774;48.778;8.904;2022-08-18T08:46:22;25.30;91.60
11436;DHT22;5774;48.778;8.904;2022-08-18T08:48:55;25.30;91.90
11436;DHT22;5774;48.778;8.904;2022-08-18T08:51:30;25.30;91.60
11436;DHT22;5774;48.778;8.904;2022-08-18T08:54:01;25.30;91.50
11436;DHT22;5774;48.778;8.904;2022-08-18T08:56:34;25.30;91.50
11436;DHT22;5774;48.778;8.904;2022-08-18T08:59:04;25.30;91.40
11436;DHT22;5774;48.778;8.904;2022-08-18T09:01:36;25.30;91.40
11436;DHT22;5774;48.778;8.904;2022-08-18T09:04:17;25.40;91.50
11436;DHT22;5774;48.778;8.904;2022-08-18T09:06:51;25.40;91.50
11436;DHT22;5774;48.778;8.904;2022-08-18T09:09:32;25.40;91.40
11436;DHT22;5774;48.778;8.904;2022-08-18T09:12:14;25.40;91.40
11436;DHT22;5774;48.778;8.904;2022-08-18T09:17:50;25.50;91.40
11436;DHT22;5774;48.778;8.904;2022-08-18T09:20:39;25.50;91.40
11436;DHT22;5774;48.778;8.904;2022-08-18T09:23:15;25.50;91.30
11436;DHT22;5774;48.778;8.904;2022-08-18T09:25:45;25.50;91.30
11436;DHT22;5774;48.778;8.904;2022-08-18T09:28:16;25.60;91.30
11436;DHT22;5774;48.778;8.904;2022-08-18T09:30:52;25.60;91.30
11436;DHT22;5774;48.778;8.904;2022-08-18T09:33:45;25.60;91.30
11436;DHT22;5774;48.778;8.904;2022-08-18T09:36:33;25.60;91.30
11436;DHT22;5774;48.778;8.904;2022-08-18T09:39:18;25.60;91.20
11436;DHT22;5774;48.778;8.904;2022-08-18T09:42:07;25.60;91.20
11436;DHT22;5774;48.778;8.904;2022-08-18T09:44:57;25.70;91.20
11436;DHT22;5774;48.778;8.904;2022-08-18T09:50:35;25.70;91.10
11436;DHT22;5774;48.778;8.904;2022-08-18T09:53:15;25.80;91.10
11436;DHT22;5774;48.778;8.904;2022-08-18T09:55:56;25.70;91.00
11436;DHT22;5774;48.778;8.904;2022-08-18T10:01:30;25.80;91.00
11436;DHT22;5774;48.778;8.904;2022-08-18T10:04:15;25.80;91.00
11436;DHT22;5774;48.778;8.904;2022-08-18T10:06:52;25.80;91.00
11436;DHT22;5774;48.778;8.904;2022-08-18T10:09:28;25.80;91.00
11436;DHT22;5774;48.778;8.904;2022-08-18T10:15:01;25.80;91.00
11436;DHT22;5774;48.778;8.904;2022-08-18T10:17:38;25.80;91.00
11436;DHT22;5774;48.778;8.904;2022-08-18T10:20:19;25.80;90.90
11436;DHT22;5774;48.778;8.904;2022-08-18T10:22:50;25.80;91.00
11436;DHT22;5774;48.778;8.904;2022-08-18T10:25:29;25.80;91.00
11436;DHT22;5774;48.778;8.904;2022-08-18T10:27:58;25.80;91.00
11436;DHT22;5774;48.778;8.904;2022-08-18T10:36:43;25.90;91.00
11436;DHT22;5774;48.778;8.904;2022-08-18T10:39:12;25.90;91.00
11436;DHT22;5774;48.778;8.904;2022-08-18T10:41:57;25.90;90.90
11436;DHT22;5774;48.778;8.904;2022-08-18T10:44:29;25.90;90.90
11436;DHT22;5774;48.778;8.904;2022-08-18T10:46:57;25.90;90.90
11436;DHT22;5774;48.778;8.904;2022-08-18T10:49:27;25.90;90.90
11436;DHT22;5774;48.778;8.904;2022-08-18T10:52:08;25.90;90.90
11436;DHT22;5774;48.778;8.904;2022-08-18T10:54:49;25.90;90.90
11436;DHT22;5774;48.778;8.904;2022-08-18T10:57:27;25.90;90.80
11436;DHT22;5774;48.778;8.904;2022-08-18T10:59:58;25.90;90.80
11436;DHT22;5774;48.778;8.904;2022-08-18T11:02:34;25.90;90.90
11436;DHT22;5774;48.778;8.904;2022-08-18T11:05:15;25.90;90.80
11436;DHT22;5774;48.778;8.904;2022-08-18T11:07:45;26.00;90.80
11436;DHT22;5774;48.778;8.904;2022-08-18T11:10:14;26.00;90.90
11436;DHT22;5774;48.778;8.904;2022-08-18T11:12:53;26.00;90.80
11436;DHT22;5774;48.778;8.904;2022-08-18T11:15:26;26.00;90.80
11436;DHT22;5774;48.778;8.904;2022-08-18T11:18:00;26.00;90.70
11436;DHT22;5774;48.778;8.904;2022-08-18T11:20:35;26.00;90.70
11436;DHT22;5774;48.778;8.904;2022-08-18T11:23:03;26.10;90.70
11436;DHT22;5774;48.778;8.904;2022-08-18T11:25:37;26.10;90.70
11436;DHT22;5774;48.778;8.904;2022-08-18T11:28:13;26.10;90.70
11436;DHT22;5774;48.778;8.904;2022-08-18T11:30:40;26.10;90.60
11436;DHT22;5774;48.778;8.904;2022-08-18T11:33:12;26.10;90.60
11436;DHT22;5774;48.778;8.904;2022-08-18T11:35:45;26.10;90.60
11436;DHT22;5774;48.778;8.904;2022-08-18T11:38:13;26.10;90.60
11436;DHT22;5774;48.778;8.904;2022-08-18T11:40:43;26.20;90.60
11436;DHT22;5774;48.778;8.904;2022-08-18T11:43:12;26.20;90.60
11436;DHT22;5774;48.778;8.904;2022-08-18T11:45:48;26.20;90.60
11436;DHT22;5774;48.778;8.904;2022-08-18T11:48:18;26.20;90.50
11436;DHT22;5774;48.778;8.904;2022-08-18T11:50:58;26.20;90.60
11436;DHT22;5774;48.778;8.904;2022-08-18T11:53:35;26.20;90.50
11436;DHT22;5774;48.778;8.904;2022-08-18T11:56:14;26.20;90.50
11436;DHT22;5774;48.778;8.904;2022-08-18T11:58:44;26.30;90.50
11436;DHT22;5774;48.778;8.904;2022-08-18T12:01:27;26.20;90.80
11436;DHT22;5774;48.778;8.904;2022-08-18T12:03:56;26.10;90.80
11436;DHT22;5774;48.778;8.904;2022-08-18T12:06:25;26.10;90.90
11436;DHT22;5774;48.778;8.904;2022-08-18T12:08:55;26.00;90.90
11436;DHT22;5774;48.778;8.904;2022-08-18T12:11:25;26.00;90.90
11436;DHT22;5774;48.778;8.904;2022-08-18T12:14:02;26.00;90.90
11436;DHT22;5774;48.778;8.904;2022-08-18T12:16:32;26.00;90.90
11436;DHT22;5774;48.778;8.904;2022-08-18T12:19:01;26.00;90.80
11436;DHT22;5774;48.778;8.904;2022-08-18T12:21:30;26.10;90.80
11436;DHT22;5774;48.778;8.904;2022-08-18T12:23:57;26.10;90.80
11436;DHT22;5774;48.778;8.904;2022-08-18T12:26:24;26.10;90.70
11436;DHT22;5774;48.778;8.904;2022-08-18T12:28:51;26.10;90.70
11436;DHT22;5774;48.778;8.904;2022-08-18T12:31:18;26.10;90.70
11436;DHT22;5774;48.778;8.904;2022-08-18T12:33:45;26.20;90.60
11436;DHT22;5774;48.778;8.904;2022-08-18T12:36:12;26.20;90.60
11436;DHT22;5774;48.778;8.904;2022-08-18T12:38:40;26.20;90.60
11436;DHT22;5774;48.778;8.904;2022-08-18T12:41:08;26.20;90.50
11436;DHT22;5774;48.778;8.904;2022-08-18T12:43:36;26.30;90.50
11436;DHT22;5774;48.778;8.904;2022-08-18T12:46:04;26.30;90.50
11436;DHT22;5774;48.778;8.904;2022-08-18T12:48:31;26.30;90.40
11436;DHT22;5774;48.778;8.904;2022-08-18T12:50:57;26.30;90.40
11436;DHT22;5774;48.778;8.904;2022-08-18T12:53:24;26.30;90.30
11436;DHT22;5774;48.778;8.904;2022-08-18T12:55:53;26.40;90.30
11436;DHT22;5774;48.778;8.904;2022-08-18T12:58:19;26.40;90.30
11436;DHT22;5774;48.778;8.904;2022-08-18T13:00:46;26.40;90.20
11436;DHT22;5774;48.778;8.904;2022-08-18T13:03:13;26.40;90.10
11436;DHT22;5774;48.778;8.904;2022-08-18T13:05:40;26.40;90.10
11436;DHT22;5774;48.778;8.904;2022-08-18T13:08:08;26.40;90.10
11436;DHT22;5774;48.778;8.904;2022-08-18T13:10:40;26.50;90.10
11436;DHT22;5774;48.778;8.904;2022-08-18T13:13:15;26.40;90.00
11436;DHT22;5774;48.778;8.904;2022-08-18T13:15:44;26.50;90.00
11436;DHT22;5774;48.778;8.904;2022-08-18T13:18:11;26.50;90.00
11436;DHT22;5774;48.778;8.904;2022-08-18T13:20:38;26.50;90.00
11436;DHT22;5774;48.778;8.904;2022-08-18T13:23:05;26.50;89.90
11436;DHT22;5774;48.778;8.904;2022-08-18T13:25:32;26.50;89.80
11436;DHT22;5774;48.778;8.904;2022-08-18T13:27:59;26.50;89.70
11436;DHT22;5774;48.778;8.904;2022-08-18T13:30:27;26.50;89.60
11436;DHT22;5774;48.778;8.904;2022-08-18T13:32:54;26.50;89.60
11436;DHT22;5774;48.778;8.904;2022-08-18T13:35:21;26.50;89.40
11436;DHT22;5774;48.778;8.904;2022-08-18T13:37:48;26.50;89.40
11436;DHT22;5774;48.778;8.904;2022-08-18T13:40:14;26.50;89.30
11436;DHT22;5774;48.778;8.904;2022-08-18T13:42:42;26.50;89.20
11436;DHT22;5774;48.778;8.904;2022-08-18T13:45:13;26.50;89.20
11436;DHT22;5774;48.778;8.904;2022-08-18T13:47:42;26.50;89.10
11436;DHT22;5774;48.778;8.904;2022-08-18T13:50:09;26.50;89.00
11436;DHT22;5774;48.778;8.904;2022-08-18T13:52:37;26.60;89.00
11436;DHT22;5774;48.778;8.904;2022-08-18T13:55:06;26.50;88.90
11436;DHT22;5774;48.778;8.904;2022-08-18T13:57:35;26.50;88.80
11436;DHT22;5774;48.778;8.904;2022-08-18T14:00:05;26.50;88.90
11436;DHT22;5774;48.778;8.904;2022-08-18T14:02:35;26.50;88.90
11436;DHT22;5774;48.778;8.904;2022-08-18T14:05:04;26.50;89.00
11436;DHT22;5774;48.778;8.904;2022-08-18T14:07:31;26.50;88.90
11436;DHT22;5774;48.778;8.904;2022-08-18T14:09:58;26.50;88.80
11436;DHT22;5774;48.778;8.904;2022-08-18T14:12:25;26.50;88.80
11436;DHT22;5774;48.778;8.904;2022-08-18T14:14:52;26.50;88.70
11436;DHT22;5774;48.778;8.904;2022-08-18T14:17:20;26.50;88.60
11436;DHT22;5774;48.778;8.904;2022-08-18T14:19:47;26.50;88.50
11436;DHT22;5774;48.778;8.904;2022-08-18T14:22:32;26.50;88.30
11436;DHT22;5774;48.778;8.904;2022-08-18T14:25:16;26.60;88.30
11436;DHT22;5774;48.778;8.904;2022-08-18T14:28:01;26.50;88.20
11436;DHT22;5774;48.778;8.904;2022-08-18T14:30:28;26.60;88.30
11436;DHT22;5774;48.778;8.904;2022-08-18T14:32:56;26.60;88.30
11436;DHT22;5774;48.778;8.904;2022-08-18T14:35:23;26.80;88.00
11436;DHT22;5774;48.778;8.904;2022-08-18T14:37:51;27.00;87.60
11436;DHT22;5774;48.778;8.904;2022-08-18T14:40:18;27.20;86.90
11436;DHT22;5774;48.778;8.904;2022-08-18T14:42:45;27.40;86.10
11436;DHT22;5774;48.778;8.904;2022-08-18T14:45:12;27.70;85.40
11436;DHT22;5774;48.778;8.904;2022-08-18T14:47:40;28.00;84.90
11436;DHT22;5774;48.778;8.904;2022-08-18T14:50:07;28.10;83.80
11436;DHT22;5774;48.778;8.904;2022-08-18T14:52:37;28.30;83.50
11436;DHT22;5774;48.778;8.904;2022-08-18T14:55:07;28.20;83.40
11436;DHT22;5774;48.778;8.904;2022-08-18T14:57:35;28.10;83.40
11436;DHT22;5774;48.778;8.904;2022-08-18T15:00:03;27.90;83.70
11436;DHT22;5774;48.778;8.904;2022-08-18T15:02:31;27.70;84.00
11436;DHT22;5774;48.778;8.904;2022-08-18T15:04:58;27.50;84.30
11436;DHT22;5774;48.778;8.904;2022-08-18T15:07:25;27.30;84.70
11436;DHT22;5774;48.778;8.904;2022-08-18T15:09:52;27.20;85.10
11436;DHT22;5774;48.778;8.904;2022-08-18T15:12:21;27.00;85.40
11436;DHT22;5774;48.778;8.904;2022-08-18T15:14:49;26.90;85.80
11436;DHT22;5774;48.778;8.904;2022-08-18T15:17:16;26.80;86.00
11436;DHT22;5774;48.778;8.904;2022-08-18T15:19:43;26.70;86.20
11436;DHT22;5774;48.778;8.904;2022-08-18T15:22:12;26.60;86.40
11436;DHT22;5774;48.778;8.904;2022-08-18T15:24:57;26.60;86.70
11436;DHT22;5774;48.778;8.904;2022-08-18T15:27:43;26.50;86.80
11436;DHT22;5774;48.778;8.904;2022-08-18T15:30:13;26.40;87.00
11436;DHT22;5774;48.778;8.904;2022-08-18T15:32:41;26.40;87.10
11436;DHT22;5774;48.778;8.904;2022-08-18T15:35:09;26.30;87.20
11436;DHT22;5774;48.778;8.904;2022-08-18T15:37:37;26.30;87.30
11436;DHT22;5774;48.778;8.904;2022-08-18T15:40:08;26.30;87.40
11436;DHT22;5774;48.778;8.904;2022-08-18T15:42:39;26.30;87.50
11436;DHT22;5774;48.778;8.904;2022-08-18T15:45:14;26.30;87.60
11436;DHT22;5774;48.778;8.904;2022-08-18T15:47:41;26.20;87.60
11436;DHT22;5774;48.778;8.904;2022-08-18T15:50:08;26.30;87.70
11436;DHT22;5774;48.778;8.904;2022-08-18T15:52:37;26.20;87.70
11436;DHT22;5774;48.778;8.904;2022-08-18T15:55:11;26.20;87.80
11436;DHT22;5774;48.778;8.904;2022-08-18T15:57:40;26.20;87.90
11436;DHT22;5774;48.778;8.904;2022-08-18T16:00:09;26.10;87.90
11436;DHT22;5774;48.778;8.904;2022-08-18T16:02:39;26.10;87.90
11436;DHT22;5774;48.778;8.904;2022-08-18T16:05:07;26.10;87.90
11436;DHT22;5774;48.778;8.904;2022-08-18T16:07:34;26.20;88.10
11436;DHT22;5774;48.778;8.904;2022-08-18T16:10:02;26.20;88.10
11436;DHT22;5774;48.778;8.904;2022-08-18T16:12:29;26.10;88.00
11436;DHT22;5774;48.778;8.904;2022-08-18T16:14:56;26.10;88.10
11436;DHT22;5774;48.778;8.904;2022-08-18T16:17:25;26.10;88.20
11436;DHT22;5774;48.778;8.904;2022-08-18T16:19:51;26.10;88.20
11436;DHT22;5774;48.778;8.904;2022-08-18T16:22:18;26.10;88.30
11436;DHT22;5774;48.778;8.904;2022-08-18T16:24:45;26.10;88.30
11436;DHT22;5774;48.778;8.904;2022-08-18T16:27:13;26.00;88.30
11436;DHT22;5774;48.778;8.904;2022-08-18T16:29:43;26.00;88.30